sensor_id;sensor_type;location;lat;lon;timestamp;temperature;humidity
22153;DHT22;11242;50.536;12.688;2023-08-24T00:00:48;14.90;99.90
22153;DHT22;11242;50.536;12.688;2023-08-24T00:03:13;14.90;99.90
22153;DHT22;11242;50.536;12.688;2023-08-24T00:05:40;14.90;99.90
22153;DHT22;11242;50.536;12.688;2023-08-24T00:08:08;14.80;99.90
22153;DHT22;11242;50.536;12.688;2023-08-24T00:10:34;14.80;99.90
22153;DHT22;11242;50.536;12.688;2023-08-24T00:13:00;14.90;99.90
22153;DHT22;11242;50.536;12.688;2023-08-24T00:15:26;14.90;99.90
22153;DHT22;11242;50.536;12.688;2023-08-24T00:17:52;14.90;99.90
22153;DHT22;11242;50.536;12.688;2023-08-24T00:20:18;14.80;99.90
22153;DHT22;11242;50.536;12.688;2023-08-24T00:22:43;14.70;99.90
22153;DHT22;11242;50.536;12.688;2023-08-24T00:25:09;14.70;99.90
22153;DHT22;11242;50.536;12.688;2023-08-24T00:27:36;14.60;99.90
22153;DHT22;11242;50.536;12.688;2023-08-24T00:30:06;14.60;99.90
22153;DHT22;11242;50.536;12.688;2023-08-24T00:32:33;14.50;99.90
22153;DHT22;11242;50.536;12.688;2023-08-24T00:35:03;14.50;99.90
22153;DHT22;11242;50.536;12.688;2023-08-24T00:37:32;14.60;99.90
22153;DHT22;11242;50.536;12.688;2023-08-24T00:40:03;14.70;99.90
22153;DHT22;11242;50.536;12.688;2023-08-24T00:42:30;14.70;99.90
22153;DHT22;11242;50.536;12.688;2023-08-24T00:44:57;14.80;99.90
22153;DHT22;11242;50.536;12.688;2023-08-24T00:47:24;14.80;99.90
22153;DHT22;11242;50.536;12.688;2023-08-24T00:49:50;14.70;99.90
22153;DHT22;11242;50.536;12.688;2023-08-24T00:52:16;14.60;99.90
22153;DHT22;11242;50.536;12.688;2023-08-24T00:54:42;14.50;99.90
22153;DHT22;11242;50.536;12.688;2023-08-24T00:57:09;14.50;99.90
22153;DHT22;11242;50.536;12.688;2023-08-24T00:59:35;14.50;99.90
22153;DHT22;11242;50.536;12.688;2023-08-24T01:02:02;14.40;99.90
22153;DHT22;11242;50.536;12.688;2023-08-24T01:04:29;14.40;99.90
22153;DHT22;11242;50.536;12.688;2023-08-24T01:06:55;14.20;99.90
22153;DHT22;11242;50.536;12.688;2023-08-24T01:09:21;14.20;99.90
22153;DHT22;11242;50.536;12.688;2023-08-24T01:12:19;14.20;99.90
22153;DHT22;11242;50.536;12.688;2023-08-24T01:15:07;14.20;99.90
22153;DHT22;11242;50.536;12.688;2023-08-24T01:17:36;14.10;99.90
22153;DHT22;11242;50.536;12.688;2023-08-24T01:20:05;14.10;99.90
22153;DHT22;11242;50.536;12.688;2023-08-24T01:22:53;14.00;99.90
22153;DHT22;11242;50.536;12.688;2023-08-24T01:25:29;14.00;99.90
22153;DHT22;11242;50.536;12.688;2023-08-24T01:27:59;13.90;99.90
22153;DHT22;11242;50.536;12.688;2023-08-24T01:30:25;13.90;99.90
22153;DHT22;11242;50.536;12.688;2023-08-24T01:32:51;13.80;99.90
22153;DHT22;11242;50.536;12.688;2023-08-24T01:35:17;13.80;99.90
22153;DHT22;11242;50.536;12.688;2023-08-24T01:37:43;13.70;99.90
22153;DHT22;11242;50.536;12.688;2023-08-24T01:40:16;13.70;99.90
22153;DHT22;11242;50.536;12.688;2023-08-24T01:42:52;13.70;99.90
22153;DHT22;11242;50.536;12.688;2023-08-24T01:45:22;13.60;99.90
22153;DHT22;11242;50.536;12.688;2023-08-24T01:47:50;13.60;99.90
22153;DHT22;11242;50.536;12.688;2023-08-24T01:50:17;13.50;99.90
22153;DHT22;11242;50.536;12.688;2023-08-24T01:52:43;13.60;99.90
22153;DHT22;11242;50.536;12.688;2023-08-24T01:55:09;13.50;99.90
22153;DHT22;11242;50.536;12.688;2023-08-24T01:57:35;13.50;99.90
22153;DHT22;11242;50.536;12.688;2023-08-24T02:00:01;13.50;99.90
22153;DHT22;11242;50.536;12.688;2023-08-24T02:02:39;13.50;99.90
22153;DHT22;11242;50.536;12.688;2023-08-24T02:05:05;13.50;99.90
22153;DHT22;11242;50.536;12.688;2023-08-24T02:07:31;13.50;99.90
22153;DHT22;11242;50.536;12.688;2023-08-24T02:09:56;13.40;99.90
22153;DHT22;11242;50.536;12.688;2023-08-24T02:12:22;13.40;99.90
22153;DHT22;11242;50.536;12.688;2023-08-24T02:14:47;13.40;99.90
22153;DHT22;11242;50.536;12.688;2023-08-24T02:17:15;13.40;99.90
22153;DHT22;11242;50.536;12.688;2023-08-24T02:19:40;13.40;99.90
22153;DHT22;11242;50.536;12.688;2023-08-24T02:22:08;13.40;99.90
22153;DHT22;11242;50.536;12.688;2023-08-24T02:24:34;13.40;99.90
22153;DHT22;11242;50.536;12.688;2023-08-24T02:27:00;13.40;99.90
22153;DHT22;11242;50.536;12.688;2023-08-24T02:29:26;13.30;99.90
22153;DHT22;11242;50.536;12.688;2023-08-24T02:31:53;13.30;99.90
22153;DHT22;11242;50.536;12.688;2023-08-24T02:34:19;13.30;99.90
22153;DHT22;11242;50.536;12.688;2023-08-24T02:36:45;13.30;99.90
22153;DHT22;11242;50.536;12.688;2023-08-24T02:39:11;13.30;99.90
22153;DHT22;11242;50.536;12.688;2023-08-24T02:41:36;13.20;99.90
22153;DHT22;11242;50.536;12.688;2023-08-24T02:44:02;13.20;99.90
22153;DHT22;11242;50.536;12.688;2023-08-24T02:46:28;13.10;99.90
22153;DHT22;11242;50.536;12.688;2023-08-24T02:48:54;13.20;99.90
22153;DHT22;11242;50.536;12.688;2023-08-24T02:51:23;13.10;99.90
22153;DHT22;11242;50.536;12.688;2023-08-24T02:53:49;13.10;99.90
22153;DHT22;11242;50.536;12.688;2023-08-24T02:56:15;13.10;99.90
22153;DHT22;11242;50.536;12.688;2023-08-24T02:58:41;13.10;99.90
22153;DHT22;11242;50.536;12.688;2023-08-24T03:01:07;13.10;99.90
22153;DHT22;11242;50.536;12.688;2023-08-24T03:03:34;13.00;99.90
22153;DHT22;11242;50.536;12.688;2023-08-24T03:06:02;13.00;99.90
22153;DHT22;11242;50.536;12.688;2023-08-24T03:08:29;13.00;99.90
22153;DHT22;11242;50.536;12.688;2023-08-24T03:10:55;13.00;99.90
22153;DHT22;11242;50.536;12.688;2023-08-24T03:13:22;13.00;99.90
22153;DHT22;11242;50.536;12.688;2023-08-24T03:15:47;12.90;99.90
22153;DHT22;11242;50.536;12.688;2023-08-24T03:18:14;12.90;99.90
22153;DHT22;11242;50.536;12.688;2023-08-24T03:20:40;12.90;99.90
22153;DHT22;11242;50.536;12.688;2023-08-24T03:23:06;12.90;99.90
22153;DHT22;11242;50.536;12.688;2023-08-24T03:25:35;12.90;99.90
22153;DHT22;11242;50.536;12.688;2023-08-24T03:28:02;12.90;99.90
22153;DHT22;11242;50.536;12.688;2023-08-24T03:30:28;12.90;99.90
22153;DHT22;11242;50.536;12.688;2023-08-24T03:32:53;12.90;99.90
22153;DHT22;11242;50.536;12.688;2023-08-24T03:35:19;12.90;99.90
22153;DHT22;11242;50.536;12.688;2023-08-24T03:37:44;12.80;99.90
22153;DHT22;11242;50.536;12.688;2023-08-24T03:40:11;12.80;99.90
22153;DHT22;11242;50.536;12.688;2023-08-24T03:42:37;12.80;99.90
22153;DHT22;11242;50.536;12.688;2023-08-24T03:45:03;12.80;99.90
22153;DHT22;11242;50.536;12.688;2023-08-24T03:47:29;12.80;99.90
22153;DHT22;11242;50.536;12.688;2023-08-24T03:49:55;12.80;99.90
22153;DHT22;11242;50.536;12.688;2023-08-24T03:52:21;12.80;99.90
22153;DHT22;11242;50.536;12.688;2023-08-24T03:54:47;12.70;99.90
22153;DHT22;11242;50.536;12.688;2023-08-24T03:57:13;12.80;99.90
22153;DHT22;11242;50.536;12.688;2023-08-24T03:59:39;12.80;99.90
22153;DHT22;11242;50.536;12.688;2023-08-24T04:02:05;12.80;99.90
22153;DHT22;11242;50.536;12.688;2023-08-24T04:04:31;12.80;99.90
22153;DHT22;11242;50.536;12.688;2023-08-24T04:06:57;12.80;99.90
22153;DHT22;11242;50.536;12.688;2023-08-24T04:09:22;12.80;99.90
22153;DHT22;11242;50.536;12.688;2023-08-24T04:11:48;12.80;99.90
22153;DHT22;11242;50.536;12.688;2023-08-24T04:14:14;12.80;99.90
22153;DHT22;11242;50.536;12.688;2023-08-24T04:16:40;12.80;99.90
22153;DHT22;11242;50.536;12.688;2023-08-24T04:19:07;12.80;99.90
22153;DHT22;11242;50.536;12.688;2023-08-24T04:21:33;12.90;99.90
22153;DHT22;11242;50.536;12.688;2023-08-24T04:23:59;12.90;99.90
22153;DHT22;11242;50.536;12.688;2023-08-24T04:26:24;12.90;99.90
22153;DHT22;11242;50.536;12.688;2023-08-24T04:28:50;12.90;99.90
22153;DHT22;11242;50.536;12.688;2023-08-24T04:31:16;13.00;99.90
22153;DHT22;11242;50.536;12.688;2023-08-24T04:33:41;13.10;99.90
22153;DHT22;11242;50.536;12.688;2023-08-24T04:36:07;13.10;99.90
22153;DHT22;11242;50.536;12.688;2023-08-24T04:38:33;13.10;99.90
22153;DHT22;11242;50.536;12.688;2023-08-24T04:40:58;13.20;99.90
22153;DHT22;11242;50.536;12.688;2023-08-24T04:43:24;13.30;99.90
22153;DHT22;11242;50.536;12.688;2023-08-24T04:45:52;13.30;99.90
22153;DHT22;11242;50.536;12.688;2023-08-24T04:48:21;13.40;99.90
22153;DHT22;11242;50.536;12.688;2023-08-24T04:50:47;13.50;99.90
22153;DHT22;11242;50.536;12.688;2023-08-24T04:53:16;13.60;99.90
22153;DHT22;11242;50.536;12.688;2023-08-24T04:55:43;13.70;99.90
22153;DHT22;11242;50.536;12.688;2023-08-24T04:58:09;13.80;99.90
22153;DHT22;11242;50.536;12.688;2023-08-24T05:00:35;13.90;99.90
22153;DHT22;11242;50.536;12.688;2023-08-24T05:03:02;14.00;99.90
22153;DHT22;11242;50.536;12.688;2023-08-24T05:05:32;14.10;99.90
22153;DHT22;11242;50.536;12.688;2023-08-24T05:07:58;14.20;99.90
22153;DHT22;11242;50.536;12.688;2023-08-24T05:10:25;14.20;99.90
22153;DHT22;11242;50.536;12.688;2023-08-24T05:12:51;14.40;99.90
22153;DHT22;11242;50.536;12.688;2023-08-24T05:15:17;14.50;99.90
22153;DHT22;11242;50.536;12.688;2023-08-24T05:17:42;14.60;99.90
22153;DHT22;11242;50.536;12.688;2023-08-24T05:20:08;14.70;99.90
22153;DHT22;11242;50.536;12.688;2023-08-24T05:22:38;14.90;99.90
22153;DHT22;11242;50.536;12.688;2023-08-24T05:25:04;15.10;99.90
22153;DHT22;11242;50.536;12.688;2023-08-24T05:27:30;16.30;99.90
22153;DHT22;11242;50.536;12.688;2023-08-24T05:29:56;18.10;99.90
22153;DHT22;11242;50.536;12.688;2023-08-24T05:32:22;20.00;99.90
22153;DHT22;11242;50.536;12.688;2023-08-24T05:34:48;21.50;99.90
22153;DHT22;11242;50.536;12.688;2023-08-24T05:37:13;22.30;99.90
22153;DHT22;11242;50.536;12.688;2023-08-24T05:39:39;23.10;99.90
22153;DHT22;11242;50.536;12.688;2023-08-24T05:42:05;23.70;99.90
22153;DHT22;11242;50.536;12.688;2023-08-24T05:44:31;24.20;99.90
22153;DHT22;11242;50.536;12.688;2023-08-24T05:46:56;24.60;99.90
22153;DHT22;11242;50.536;12.688;2023-08-24T05:49:22;25.20;99.90
22153;DHT22;11242;50.536;12.688;2023-08-24T05:51:50;26.50;99.90
22153;DHT22;11242;50.536;12.688;2023-08-24T05:54:16;27.60;96.60
22153;DHT22;11242;50.536;12.688;2023-08-24T05:56:44;28.30;93.50
22153;DHT22;11242;50.536;12.688;2023-08-24T05:59:09;28.80;87.60
22153;DHT22;11242;50.536;12.688;2023-08-24T06:01:35;29.50;83.30
22153;DHT22;11242;50.536;12.688;2023-08-24T06:04:04;30.10;78.70
22153;DHT22;11242;50.536;12.688;2023-08-24T06:06:30;30.80;75.60
22153;DHT22;11242;50.536;12.688;2023-08-24T06:08:56;30.90;75.20
22153;DHT22;11242;50.536;12.688;2023-08-24T06:11:21;30.40;75.50
22153;DHT22;11242;50.536;12.688;2023-08-24T06:13:47;31.80;71.00
22153;DHT22;11242;50.536;12.688;2023-08-24T06:16:12;32.90;66.70
22153;DHT22;11242;50.536;12.688;2023-08-24T06:18:38;33.00;59.20
22153;DHT22;11242;50.536;12.688;2023-08-24T06:21:03;32.60;58.20
22153;DHT22;11242;50.536;12.688;2023-08-24T06:23:29;32.50;58.40
22153;DHT22;11242;50.536;12.688;2023-08-24T06:25:55;32.60;58.70
22153;DHT22;11242;50.536;12.688;2023-08-24T06:28:20;32.20;59.70
22153;DHT22;11242;50.536;12.688;2023-08-24T06:30:46;32.40;57.90
22153;DHT22;11242;50.536;12.688;2023-08-24T06:33:13;32.50;57.30
22153;DHT22;11242;50.536;12.688;2023-08-24T06:35:39;32.80;56.50
22153;DHT22;11242;50.536;12.688;2023-08-24T06:38:05;33.30;56.60
22153;DHT22;11242;50.536;12.688;2023-08-24T06:40:31;33.70;54.60
22153;DHT22;11242;50.536;12.688;2023-08-24T06:42:57;34.40;55.20
22153;DHT22;11242;50.536;12.688;2023-08-24T06:45:23;35.20;53.30
22153;DHT22;11242;50.536;12.688;2023-08-24T06:47:48;35.60;51.80
22153;DHT22;11242;50.536;12.688;2023-08-24T06:50:14;36.10;50.50
22153;DHT22;11242;50.536;12.688;2023-08-24T06:52:41;36.20;48.70
22153;DHT22;11242;50.536;12.688;2023-08-24T06:55:08;36.70;48.50
22153;DHT22;11242;50.536;12.688;2023-08-24T06:57:35;37.10;47.60
22153;DHT22;11242;50.536;12.688;2023-08-24T07:00:01;37.70;46.80
22153;DHT22;11242;50.536;12.688;2023-08-24T07:02:26;37.30;46.20
22153;DHT22;11242;50.536;12.688;2023-08-24T07:04:52;37.20;46.30
22153;DHT22;11242;50.536;12.688;2023-08-24T07:07:18;36.80;46.90
22153;DHT22;11242;50.536;12.688;2023-08-24T07:09:43;36.10;47.20
22153;DHT22;11242;50.536;12.688;2023-08-24T07:12:09;35.90;47.30
22153;DHT22;11242;50.536;12.688;2023-08-24T07:14:38;35.70;48.90
22153;DHT22;11242;50.536;12.688;2023-08-24T07:17:05;35.70;48.90
22153;DHT22;11242;50.536;12.688;2023-08-24T07:19:31;34.80;50.50
22153;DHT22;11242;50.536;12.688;2023-08-24T07:21:57;34.80;51.00
22153;DHT22;11242;50.536;12.688;2023-08-24T07:24:23;35.40;50.50
22153;DHT22;11242;50.536;12.688;2023-08-24T07:26:55;35.80;50.40
22153;DHT22;11242;50.536;12.688;2023-08-24T07:29:21;36.20;49.00
22153;DHT22;11242;50.536;12.688;2023-08-24T07:31:47;34.70;49.40
22153;DHT22;11242;50.536;12.688;2023-08-24T07:34:12;35.20;49.40
22153;DHT22;11242;50.536;12.688;2023-08-24T07:36:38;35.00;48.60
22153;DHT22;11242;50.536;12.688;2023-08-24T07:39:04;34.50;48.80
22153;DHT22;11242;50.536;12.688;2023-08-24T07:41:30;34.10;50.00
22153;DHT22;11242;50.536;12.688;2023-08-24T07:43:55;34.40;49.00
22153;DHT22;11242;50.536;12.688;2023-08-24T07:46:21;34.30;49.10
22153;DHT22;11242;50.536;12.688;2023-08-24T07:48:47;34.40;49.40
22153;DHT22;11242;50.536;12.688;2023-08-24T07:51:12;34.90;48.90
22153;DHT22;11242;50.536;12.688;2023-08-24T07:53:38;34.40;48.10
22153;DHT22;11242;50.536;12.688;2023-08-24T07:56:03;34.30;48.70
22153;DHT22;11242;50.536;12.688;2023-08-24T07:58:29;35.10;48.30
22153;DHT22;11242;50.536;12.688;2023-08-24T08:00:57;35.60;47.10
22153;DHT22;11242;50.536;12.688;2023-08-24T08:03:22;35.90;47.00
22153;DHT22;11242;50.536;12.688;2023-08-24T08:05:48;36.40;46.10
22153;DHT22;11242;50.536;12.688;2023-08-24T08:08:14;35.90;47.00
22153;DHT22;11242;50.536;12.688;2023-08-24T08:10:40;35.70;47.20
22153;DHT22;11242;50.536;12.688;2023-08-24T08:13:07;35.20;46.00
22153;DHT22;11242;50.536;12.688;2023-08-24T08:15:33;35.00;46.70
22153;DHT22;11242;50.536;12.688;2023-08-24T08:17:59;35.30;45.80
22153;DHT22;11242;50.536;12.688;2023-08-24T08:20:24;35.00;45.50
22153;DHT22;11242;50.536;12.688;2023-08-24T08:22:50;35.30;46.10
22153;DHT22;11242;50.536;12.688;2023-08-24T08:25:16;35.50;45.20
22153;DHT22;11242;50.536;12.688;2023-08-24T08:27:44;36.00;43.30
22153;DHT22;11242;50.536;12.688;2023-08-24T08:30:10;35.70;44.10
22153;DHT22;11242;50.536;12.688;2023-08-24T08:32:36;35.90;43.90
22153;DHT22;11242;50.536;12.688;2023-08-24T08:35:02;35.60;44.50
22153;DHT22;11242;50.536;12.688;2023-08-24T08:37:30;35.40;44.80
22153;DHT22;11242;50.536;12.688;2023-08-24T08:39:57;35.20;44.20
22153;DHT22;11242;50.536;12.688;2023-08-24T08:42:23;34.80;44.40
22153;DHT22;11242;50.536;12.688;2023-08-24T08:44:49;34.50;46.10
22153;DHT22;11242;50.536;12.688;2023-08-24T08:47:16;34.90;45.20
22153;DHT22;11242;50.536;12.688;2023-08-24T08:49:43;35.60;44.60
22153;DHT22;11242;50.536;12.688;2023-08-24T08:52:10;35.80;43.80
22153;DHT22;11242;50.536;12.688;2023-08-24T08:54:37;36.30;43.20
22153;DHT22;11242;50.536;12.688;2023-08-24T08:57:02;36.30;42.90
22153;DHT22;11242;50.536;12.688;2023-08-24T08:59:28;35.70;43.50
22153;DHT22;11242;50.536;12.688;2023-08-24T09:01:57;35.90;43.80
22153;DHT22;11242;50.536;12.688;2023-08-24T09:04:29;36.10;42.90
22153;DHT22;11242;50.536;12.688;2023-08-24T09:06:55;37.40;41.70
22153;DHT22;11242;50.536;12.688;2023-08-24T09:09:21;37.80;41.00
22153;DHT22;11242;50.536;12.688;2023-08-24T09:11:48;37.30;42.20
22153;DHT22;11242;50.536;12.688;2023-08-24T09:14:14;37.60;41.10
22153;DHT22;11242;50.536;12.688;2023-08-24T09:16:41;37.50;42.10
22153;DHT22;11242;50.536;12.688;2023-08-24T09:19:06;37.50;41.80
22153;DHT22;11242;50.536;12.688;2023-08-24T09:21:37;36.70;41.90
22153;DHT22;11242;50.536;12.688;2023-08-24T09:24:03;35.70;44.20
22153;DHT22;11242;50.536;12.688;2023-08-24T09:26:36;33.70;47.10
22153;DHT22;11242;50.536;12.688;2023-08-24T09:29:13;31.50;49.00
22153;DHT22;11242;50.536;12.688;2023-08-24T09:31:40;30.30;51.70
22153;DHT22;11242;50.536;12.688;2023-08-24T09:34:06;29.60;53.40
22153;DHT22;11242;50.536;12.688;2023-08-24T09:36:35;29.30;53.20
22153;DHT22;11242;50.536;12.688;2023-08-24T09:39:02;29.70;52.80
22153;DHT22;11242;50.536;12.688;2023-08-24T09:42:00;29.80;51.80
22153;DHT22;11242;50.536;12.688;2023-08-24T09:44:27;29.70;52.50
22153;DHT22;11242;50.536;12.688;2023-08-24T09:46:54;29.50;53.30
22153;DHT22;11242;50.536;12.688;2023-08-24T09:49:20;29.40;52.70
22153;DHT22;11242;50.536;12.688;2023-08-24T09:51:48;29.40;52.90
22153;DHT22;11242;50.536;12.688;2023-08-24T09:54:15;29.40;52.70
22153;DHT22;11242;50.536;12.688;2023-08-24T09:56:42;29.20;52.70
22153;DHT22;11242;50.536;12.688;2023-08-24T09:59:13;29.30;52.40
22153;DHT22;11242;50.536;12.688;2023-08-24T10:01:44;29.40;52.20
22153;DHT22;11242;50.536;12.688;2023-08-24T10:04:10;29.40;51.90
22153;DHT22;11242;50.536;12.688;2023-08-24T10:06:38;29.60;52.90
22153;DHT22;11242;50.536;12.688;2023-08-24T10:09:07;29.80;52.40
22153;DHT22;11242;50.536;12.688;2023-08-24T10:11:37;29.70;52.80
22153;DHT22;11242;50.536;12.688;2023-08-24T10:16:57;29.90;53.50
22153;DHT22;11242;50.536;12.688;2023-08-24T10:19:24;29.80;53.70
22153;DHT22;11242;50.536;12.688;2023-08-24T10:21:53;29.60;52.80
22153;DHT22;11242;50.536;12.688;2023-08-24T10:24:19;29.40;53.70
22153;DHT22;11242;50.536;12.688;2023-08-24T10:26:47;29.20;54.00
22153;DHT22;11242;50.536;12.688;2023-08-24T10:29:14;29.30;54.00
22153;DHT22;11242;50.536;12.688;2023-08-24T10:31:40;29.10;54.40
22153;DHT22;11242;50.536;12.688;2023-08-24T10:34:07;29.10;55.40
22153;DHT22;11242;50.536;12.688;2023-08-24T10:36:33;29.00;53.70
22153;DHT22;11242;50.536;12.688;2023-08-24T10:39:02;28.80;54.00
22153;DHT22;11242;50.536;12.688;2023-08-24T10:41:51;28.80;54.40
22153;DHT22;11242;50.536;12.688;2023-08-24T10:44:37;28.60;55.20
22153;DHT22;11242;50.536;12.688;2023-08-24T10:47:22;28.20;55.70
22153;DHT22;11242;50.536;12.688;2023-08-24T10:49:59;27.90;57.30
22153;DHT22;11242;50.536;12.688;2023-08-24T10:52:30;27.90;58.90
22153;DHT22;11242;50.536;12.688;2023-08-24T10:54:56;27.60;59.50
22153;DHT22;11242;50.536;12.688;2023-08-24T10:57:26;27.60;59.70
22153;DHT22;11242;50.536;12.688;2023-08-24T11:02:51;27.60;58.60
22153;DHT22;11242;50.536;12.688;2023-08-24T11:05:28;27.60;60.80
22153;DHT22;11242;50.536;12.688;2023-08-24T11:08:00;27.50;62.40
22153;DHT22;11242;50.536;12.688;2023-08-24T11:10:44;27.60;63.10
22153;DHT22;11242;50.536;12.688;2023-08-24T11:13:13;27.70;62.40
22153;DHT22;11242;50.536;12.688;2023-08-24T11:15:41;28.30;60.50
22153;DHT22;11242;50.536;12.688;2023-08-24T11:18:14;28.90;58.80
22153;DHT22;11242;50.536;12.688;2023-08-24T11:20:48;29.10;58.00
22153;DHT22;11242;50.536;12.688;2023-08-24T11:23:18;29.50;57.60
22153;DHT22;11242;50.536;12.688;2023-08-24T11:25:45;29.50;57.40
22153;DHT22;11242;50.536;12.688;2023-08-24T11:28:11;29.40;57.90
22153;DHT22;11242;50.536;12.688;2023-08-24T11:30:36;29.60;57.60
22153;DHT22;11242;50.536;12.688;2023-08-24T11:33:02;29.50;57.60
22153;DHT22;11242;50.536;12.688;2023-08-24T11:35:29;29.10;57.50
22153;DHT22;11242;50.536;12.688;2023-08-24T11:37:55;28.70;58.30
22153;DHT22;11242;50.536;12.688;2023-08-24T11:40:21;28.00;60.60
22153;DHT22;11242;50.536;12.688;2023-08-24T11:42:58;27.70;61.70
22153;DHT22;11242;50.536;12.688;2023-08-24T11:45:24;28.00;63.30
22153;DHT22;11242;50.536;12.688;2023-08-24T11:47:55;28.00;63.50
22153;DHT22;11242;50.536;12.688;2023-08-24T11:50:23;28.00;63.90
22153;DHT22;11242;50.536;12.688;2023-08-24T11:52:48;28.00;64.70
22153;DHT22;11242;50.536;12.688;2023-08-24T11:55:14;27.90;63.70
22153;DHT22;11242;50.536;12.688;2023-08-24T11:57:41;27.80;64.80
22153;DHT22;11242;50.536;12.688;2023-08-24T12:00:07;27.80;65.90
22153;DHT22;11242;50.536;12.688;2023-08-24T12:02:34;27.90;68.00
22153;DHT22;11242;50.536;12.688;2023-08-24T12:05:05;28.20;68.50
22153;DHT22;11242;50.536;12.688;2023-08-24T12:07:31;28.80;66.60
22153;DHT22;11242;50.536;12.688;2023-08-24T12:10:03;29.60;65.90
22153;DHT22;11242;50.536;12.688;2023-08-24T12:12:28;29.90;62.30
22153;DHT22;11242;50.536;12.688;2023-08-24T12:14:55;29.70;62.60
22153;DHT22;11242;50.536;12.688;2023-08-24T12:17:20;29.50;59.20
22153;DHT22;11242;50.536;12.688;2023-08-24T12:19:58;28.80;60.20
22153;DHT22;11242;50.536;12.688;2023-08-24T12:22:25;28.60;62.20
22153;DHT22;11242;50.536;12.688;2023-08-24T12:24:51;28.50;62.50
22153;DHT22;11242;50.536;12.688;2023-08-24T12:27:24;28.60;61.20
22153;DHT22;11242;50.536;12.688;2023-08-24T12:29:51;28.30;61.20
22153;DHT22;11242;50.536;12.688;2023-08-24T12:32:18;28.80;60.00
22153;DHT22;11242;50.536;12.688;2023-08-24T12:34:49;28.80;59.90
22153;DHT22;11242;50.536;12.688;2023-08-24T12:37:17;28.90;59.30
22153;DHT22;11242;50.536;12.688;2023-08-24T12:39:42;28.20;59.00
22153;DHT22;11242;50.536;12.688;2023-08-24T12:42:08;28.00;58.50
22153;DHT22;11242;50.536;12.688;2023-08-24T12:44:34;28.20;58.50
22153;DHT22;11242;50.536;12.688;2023-08-24T12:47:02;28.50;58.90
22153;DHT22;11242;50.536;12.688;2023-08-24T12:49:28;28.50;58.50
22153;DHT22;11242;50.536;12.688;2023-08-24T12:51:53;28.60;57.00
22153;DHT22;11242;50.536;12.688;2023-08-24T12:54:19;28.50;57.10
22153;DHT22;11242;50.536;12.688;2023-08-24T12:56:44;28.60;57.90
22153;DHT22;11242;50.536;12.688;2023-08-24T12:59:10;28.50;57.20
22153;DHT22;11242;50.536;12.688;2023-08-24T13:01:37;28.70;56.10
22153;DHT22;11242;50.536;12.688;2023-08-24T13:04:04;28.70;55.70
22153;DHT22;11242;50.536;12.688;2023-08-24T13:06:29;28.80;55.40
22153;DHT22;11242;50.536;12.688;2023-08-24T13:08:55;28.80;55.20
22153;DHT22;11242;50.536;12.688;2023-08-24T13:11:21;29.00;54.00
22153;DHT22;11242;50.536;12.688;2023-08-24T13:13:48;28.80;54.90
22153;DHT22;11242;50.536;12.688;2023-08-24T13:16:14;28.80;53.90
22153;DHT22;11242;50.536;12.688;2023-08-24T13:18:40;28.50;54.10
22153;DHT22;11242;50.536;12.688;2023-08-24T13:21:05;28.30;54.50
22153;DHT22;11242;50.536;12.688;2023-08-24T13:23:31;28.40;54.50
22153;DHT22;11242;50.536;12.688;2023-08-24T13:25:58;28.70;55.00
22153;DHT22;11242;50.536;12.688;2023-08-24T13:28:24;28.90;56.30
22153;DHT22;11242;50.536;12.688;2023-08-24T13:30:50;29.00;54.70
22153;DHT22;11242;50.536;12.688;2023-08-24T13:33:15;28.90;55.90
22153;DHT22;11242;50.536;12.688;2023-08-24T13:35:41;29.00;55.90
22153;DHT22;11242;50.536;12.688;2023-08-24T13:38:07;29.00;56.10
22153;DHT22;11242;50.536;12.688;2023-08-24T13:40:32;28.90;56.00
22153;DHT22;11242;50.536;12.688;2023-08-24T13:42:58;28.90;56.80
22153;DHT22;11242;50.536;12.688;2023-08-24T13:45:24;28.50;55.10
22153;DHT22;11242;50.536;12.688;2023-08-24T13:47:50;28.40;55.70
22153;DHT22;11242;50.536;12.688;2023-08-24T13:50:15;28.70;55.50
22153;DHT22;11242;50.536;12.688;2023-08-24T13:52:41;28.90;55.50
22153;DHT22;11242;50.536;12.688;2023-08-24T13:55:07;29.00;53.20
22153;DHT22;11242;50.536;12.688;2023-08-24T13:57:32;28.90;52.20
22153;DHT22;11242;50.536;12.688;2023-08-24T13:59:58;28.90;53.80
22153;DHT22;11242;50.536;12.688;2023-08-24T14:02:25;29.10;52.30
22153;DHT22;11242;50.536;12.688;2023-08-24T14:04:50;29.10;52.40
22153;DHT22;11242;50.536;12.688;2023-08-24T14:07:16;29.10;52.50
22153;DHT22;11242;50.536;12.688;2023-08-24T14:09:41;29.10;52.30
22153;DHT22;11242;50.536;12.688;2023-08-24T14:12:07;29.30;52.20
22153;DHT22;11242;50.536;12.688;2023-08-24T14:14:33;29.10;52.60
22153;DHT22;11242;50.536;12.688;2023-08-24T14:16:58;29.10;53.80
22153;DHT22;11242;50.536;12.688;2023-08-24T14:19:24;28.90;53.30
22153;DHT22;11242;50.536;12.688;2023-08-24T14:21:51;29.00;54.50
22153;DHT22;11242;50.536;12.688;2023-08-24T14:24:16;28.90;53.70
22153;DHT22;11242;50.536;12.688;2023-08-24T14:26:42;28.70;53.40
22153;DHT22;11242;50.536;12.688;2023-08-24T14:29:11;28.70;53.80
22153;DHT22;11242;50.536;12.688;2023-08-24T14:31:37;28.70;53.90
22153;DHT22;11242;50.536;12.688;2023-08-24T14:34:03;28.50;54.80
22153;DHT22;11242;50.536;12.688;2023-08-24T14:36:29;28.60;54.80
22153;DHT22;11242;50.536;12.688;2023-08-24T14:38:55;28.60;54.80
22153;DHT22;11242;50.536;12.688;2023-08-24T14:41:21;28.70;55.20
22153;DHT22;11242;50.536;12.688;2023-08-24T14:43:47;28.80;55.10
22153;DHT22;11242;50.536;12.688;2023-08-24T14:46:13;28.80;56.20
22153;DHT22;11242;50.536;12.688;2023-08-24T14:48:39;28.70;55.60
22153;DHT22;11242;50.536;12.688;2023-08-24T14:51:05;28.50;56.50
22153;DHT22;11242;50.536;12.688;2023-08-24T14:53:30;28.30;57.50
22153;DHT22;11242;50.536;12.688;2023-08-24T14:55:57;28.20;57.40
22153;DHT22;11242;50.536;12.688;2023-08-24T14:58:25;28.30;57.00
22153;DHT22;11242;50.536;12.688;2023-08-24T15:00:52;28.40;56.50
22153;DHT22;11242;50.536;12.688;2023-08-24T15:03:18;28.40;57.20
22153;DHT22;11242;50.536;12.688;2023-08-24T15:05:56;28.40;57.80
22153;DHT22;11242;50.536;12.688;2023-08-24T15:08:22;28.50;58.60
22153;DHT22;11242;50.536;12.688;2023-08-24T15:10:51;28.60;58.50
22153;DHT22;11242;50.536;12.688;2023-08-24T15:13:18;28.70;57.90
22153;DHT22;11242;50.536;12.688;2023-08-24T15:15:44;29.00;57.10
22153;DHT22;11242;50.536;12.688;2023-08-24T15:18:10;29.00;56.70
22153;DHT22;11242;50.536;12.688;2023-08-24T15:20:36;28.90;57.20